Time;durP1;ratioP1;P1;durP2;ratioP2;P2;SDS_P1;SDS_P2;PMS_P1;PMS_P2;Temp;Humidity;BMP_temperature;BMP_pressure;BME280_temperature;BME280_humidity;BME280_pressure;Samples;Min_cycle;Max_cycle;Signal;HPM_P1;HPM_P2
2023/10/25 03:00:10;;;;;;;11.30;8.40;;;;;;;12.27;100.00;97293.66;107235;1309;558367;-46
2023/10/25 03:02:38;;;;;;;9.40;7.90;;;;;;;12.27;100.00;97293.30;107496;1301;22430;-50
2023/10/25 03:05:04;;;;;;;12.60;9.00;;;;;;;12.28;100.00;97295.86;107404;1294;22273;-49
2023/10/25 03:07:29;;;;;;;10.30;8.40;;;;;;;12.27;100.00;97296.10;107414;1312;22488;-50
2023/10/25 03:09:55;;;;;;;14.00;8.50;;;;;;;12.27;100.00;97294.91;107465;1290;22304;-48
2023/10/25 03:12:20;;;;;;;9.60;8.10;;;;;;;12.26;100.00;97291.62;107386;1300;135008;-49
2023/10/25 03:14:45;;;;;;;8.80;7.20;;;;;;;12.29;100.00;97296.09;107715;1297;22438;-48
2023/10/25 03:17:11;;;;;;;8.80;7.10;;;;;;;12.32;100.00;97293.96;107708;1309;22390;-48
2023/10/25 03:19:36;;;;;;;8.70;7.00;;;;;;;12.33;100.00;97298.77;107743;1309;22326;-50
2023/10/25 03:22:03;;;;;;;7.30;6.40;;;;;;;12.33;100.00;97297.47;107712;1309;22450;-48
2023/10/25 03:24:29;;;;;;;7.80;6.70;;;;;;;12.34;100.00;97296.36;107755;1309;22452;-50
2023/10/25 03:26:54;;;;;;;7.80;6.70;;;;;;;12.35;100.00;97294.20;107739;1309;22447;-46
2023/10/25 03:29:20;;;;;;;7.00;6.30;;;;;;;12.34;100.00;97292.50;107821;1302;22247;-50
2023/10/25 03:31:45;;;;;;;8.20;6.40;;;;;;;12.35;100.00;97288.91;107897;1308;22378;-47
2023/10/25 03:34:10;;;;;;;7.10;6.20;;;;;;;12.34;100.00;97285.67;107876;1308;22423;-51
2023/10/25 03:36:35;;;;;;;8.30;6.70;;;;;;;12.33;100.00;97284.66;107886;1289;24431;-49
2023/10/25 03:39:01;;;;;;;9.80;7.10;;;;;;;12.34;100.00;97277.06;107804;1304;22449;-46
2023/10/25 03:41:26;;;;;;;9.20;6.50;;;;;;;12.35;100.00;97272.58;107749;1301;22236;-47
2023/10/25 03:43:51;;;;;;;8.80;6.30;;;;;;;12.37;100.00;97270.57;107690;1305;23004;-47
2023/10/25 03:46:17;;;;;;;8.50;6.00;;;;;;;12.39;100.00;97268.52;107721;1291;22445;-46
2023/10/25 03:48:42;;;;;;;7.90;6.00;;;;;;;12.39;100.00;97268.16;107713;1307;22518;-46
2023/10/25 03:51:08;;;;;;;7.60;5.80;;;;;;;12.39;100.00;97273.34;107738;1290;22274;-48
2023/10/25 03:53:34;;;;;;;7.10;5.60;;;;;;;12.40;100.00;97271.34;107738;1302;22180;-48
2023/10/25 03:55:59;;;;;;;6.90;5.60;;;;;;;12.42;100.00;97270.32;107754;1309;22450;-51
2023/10/25 03:58:25;;;;;;;6.70;5.30;;;;;;;12.42;100.00;97265.68;107741;1291;22260;-45
2023/10/25 04:01:00;;;;;;;6.20;5.60;;;;;;;12.43;100.00;97267.34;107739;1291;22669;-48
2023/10/25 04:03:26;;;;;;;5.10;4.60;;;;;;;12.43;100.00;97263.30;107738;1301;22532;-47
2023/10/25 04:05:51;;;;;;;5.70;5.10;;;;;;;12.44;100.00;97261.16;107708;1309;22306;-47
2023/10/25 04:08:17;;;;;;;5.80;4.80;;;;;;;12.43;100.00;97256.80;107765;1291;22408;-46
2023/10/25 04:10:48;;;;;;;5.20;4.80;;;;;;;12.42;100.00;97255.89;107680;1291;22283;-46
2023/10/25 04:13:13;;;;;;;6.30;5.20;;;;;;;12.42;100.00;97257.34;107711;1291;23333;-47
2023/10/25 04:15:39;;;;;;;5.70;4.80;;;;;;;12.42;100.00;97255.30;107687;1291;22486;-48
2023/10/25 04:18:09;;;;;;;7.90;5.20;;;;;;;12.42;100.00;97251.31;107651;1309;22285;-48
2023/10/25 04:20:34;;;;;;;5.30;4.80;;;;;;;12.42;100.00;97250.63;107696;1287;22265;-48
2023/10/25 04:22:59;;;;;;;4.90;4.50;;;;;;;12.42;100.00;97247.60;107683;1309;23040;-50
2023/10/25 04:25:24;;;;;;;6.40;4.70;;;;;;;12.42;100.00;97246.71;107677;1308;22233;-49
2023/10/25 04:27:50;;;;;;;5.60;5.00;;;;;;;12.42;100.00;97243.75;107697;1294;22296;-50
2023/10/25 04:30:15;;;;;;;4.80;4.30;;;;;;;12.42;100.00;97241.45;107667;1308;22278;-51
2023/10/25 04:32:40;;;;;;;5.20;4.60;;;;;;;12.44;100.00;97240.57;107671;1291;22507;-47
2023/10/25 04:35:06;;;;;;;4.70;4.00;;;;;;;12.45;100.00;97234.31;107679;1290;22248;-49
2023/10/25 04:37:31;;;;;;;5.70;4.30;;;;;;;12.45;100.00;97230.85;107695;1309;22477;-47
2023/10/25 04:39:56;;;;;;;5.00;4.50;;;;;;;12.45;100.00;97229.25;107696;1299;22246;-47
2023/10/25 04:42:21;;;;;;;4.60;3.90;;;;;;;12.45;100.00;97228.55;107686;1309;22375;-47
2023/10/25 04:44:47;;;;;;;4.50;4.10;;;;;;;12.45;100.00;97225.55;107673;1291;22427;-48
2023/10/25 04:47:13;;;;;;;5.40;4.00;;;;;;;12.46;100.00;97223.48;107680;1288;22941;-49
2023/10/25 04:49:39;;;;;;;5.50;4.10;;;;;;;12.45;100.00;97221.27;107715;1291;22586;-46
2023/10/25 04:52:04;;;;;;;3.90;3.60;;;;;;;12.45;100.00;97224.70;107679;1291;22969;-46
2023/10/25 04:54:29;;;;;;;4.40;4.10;;;;;;;12.45;100.00;97224.17;107685;1308;22281;-46
2023/10/25 04:56:57;;;;;;;4.90;4.50;;;;;;;12.46;100.00;97222.07;107679;1291;22444;-48
2023/10/25 04:59:22;;;;;;;5.10;4.60;;;;;;;12.47;100.00;97218.14;107702;1291;22245;-48
2023/10/25 05:01:47;;;;;;;6.20;4.50;;;;;;;12.48;100.00;97216.99;107681;1309;22260;-47
2023/10/25 05:04:13;;;;;;;4.50;4.10;;;;;;;12.48;100.00;97215.94;107671;1288;22947;-48
2023/10/25 05:06:38;;;;;;;4.50;4.10;;;;;;;12.47;100.00;97214.59;107672;1307;22227;-49
2023/10/25 05:09:04;;;;;;;4.30;3.90;;;;;;;12.46;100.00;97213.31;107691;1308;22269;-49
2023/10/25 05:11:33;;;;;;;4.40;4.00;;;;;;;12.47;100.00;97214.11;107663;1309;22315;-46
2023/10/25 05:13:59;;;;;;;8.60;4.30;;;;;;;12.47;100.00;97218.27;107684;1303;22297;-45
2023/10/25 05:16:24;;;;;;;4.40;4.00;;;;;;;12.47;100.00;97216.58;107691;1291;22445;-47
2023/10/25 05:18:50;;;;;;;5.10;4.00;;;;;;;12.47;100.00;97215.72;107698;1298;22413;-46
2023/10/25 05:21:16;;;;;;;4.30;3.70;;;;;;;12.45;100.00;97218.11;107675;1309;22293;-49
2023/10/25 05:23:42;;;;;;;4.20;3.80;;;;;;;12.45;100.00;97222.70;107651;1308;23158;-48
2023/10/25 05:26:08;;;;;;;4.20;3.50;;;;;;;12.46;100.00;97220.00;107666;1291;22255;-48
2023/10/25 05:28:34;;;;;;;6.10;4.10;;;;;;;12.49;100.00;97222.90;107687;1304;22295;-46
2023/10/25 05:31:01;;;;;;;4.90;4.30;;;;;;;12.50;100.00;97225.41;107437;1295;22416;-49
2023/10/25 05:33:29;;;;;;;6.70;4.40;;;;;;;12.45;100.00;97231.88;107688;1291;22493;-46
2023/10/25 05:35:54;;;;;;;7.90;4.30;;;;;;;12.39;100.00;97234.90;107695;1309;23082;-47
2023/10/25 05:38:20;;;;;;;5.60;5.00;;;;;;;12.38;100.00;97238.33;107676;1309;22391;-47
2023/10/25 05:40:47;;;;;;;5.50;4.90;;;;;;;12.38;100.00;97242.94;107694;1301;22461;-48
2023/10/25 05:43:15;;;;;;;5.00;4.60;;;;;;;12.35;100.00;97246.04;107697;1309;23217;-46
2023/10/25 05:45:42;;;;;;;7.80;4.80;;;;;;;12.32;100.00;97247.17;107691;1304;22213;-47
2023/10/25 05:48:09;;;;;;;;;;;;;;;12.27;100.00;97251.27;107708;1309;22456;-47
2023/10/25 05:50:36;;;;;;;4.90;4.50;;;;;;;12.19;100.00;97253.14;107694;1296;22244;-48
2023/10/25 05:53:01;;;;;;;6.20;5.20;;;;;;;12.13;100.00;97254.55;107684;1309;22246;-44
2023/10/25 05:55:27;;;;;;;7.10;5.10;;;;;;;12.13;100.00;97261.39;107675;1308;22242;-46
2023/10/25 05:57:52;;;;;;;7.90;5.00;;;;;;;12.15;100.00;97261.80;107669;1294;23256;-48
2023/10/25 06:00:18;;;;;;;5.80;5.10;;;;;;;12.15;100.00;97263.01;107651;1306;22259;-47
2023/10/25 06:02:44;;;;;;;7.40;5.20;;;;;;;12.14;100.00;97267.45;107646;1309;22484;-47
2023/10/25 06:05:12;;;;;;;8.90;5.50;;;;;;;12.16;100.00;97269.80;107688;1308;22991;-46
2023/10/25 06:07:38;;;;;;;5.60;5.10;;;;;;;12.17;100.00;97269.16;107689;1288;22358;-50
2023/10/25 06:10:05;;;;;;;8.80;6.60;;;;;;;12.17;100.00;97272.32;107674;1291;22333;-48
2023/10/25 06:12:30;;;;;;;11.50;7.60;;;;;;;12.16;100.00;97273.98;107671;1293;22244;-45
2023/10/25 06:14:56;;;;;;;13.30;8.40;;;;;;;12.17;100.00;97275.85;107647;1309;23320;-47
2023/10/25 06:17:21;;;;;;;7.80;6.00;;;;;;;12.17;100.00;97273.19;107672;1291;22383;-45
2023/10/25 06:19:46;;;;;;;10.40;6.00;;;;;;;12.16;100.00;97273.85;107632;1308;22282;-48
2023/10/25 06:22:12;;;;;;;8.00;5.30;;;;;;;12.16;100.00;97279.38;107653;1300;22251;-48
2023/10/25 06:24:37;;;;;;;6.80;5.90;;;;;;;12.15;100.00;97282.64;107665;1302;25038;-46
2023/10/25 06:27:03;;;;;;;5.90;5.20;;;;;;;12.15;100.00;97284.42;107669;1292;22492;-45
2023/10/25 06:29:28;;;;;;;6.00;5.30;;;;;;;12.15;100.00;97283.36;107669;1309;23077;-47
2023/10/25 06:31:53;;;;;;;9.20;6.10;;;;;;;12.10;100.00;97288.04;107633;1309;22285;-48
2023/10/25 06:34:19;;;;;;;6.10;5.50;;;;;;;12.10;100.00;97288.95;107641;1302;22258;-47
2023/10/25 06:36:45;;;;;;;7.60;5.80;;;;;;;12.09;100.00;97295.33;107701;1290;22436;-49
2023/10/25 06:39:11;;;;;;;7.90;5.50;;;;;;;12.06;100.00;97299.97;107667;1308;23102;-49
2023/10/25 06:41:36;;;;;;;5.30;4.80;;;;;;;12.05;100.00;97305.02;107649;1308;22413;-47
2023/10/25 06:44:03;;;;;;;5.70;4.50;;;;;;;11.99;100.00;97301.90;107648;1290;22260;-48
2023/10/25 06:46:29;;;;;;;5.10;4.60;;;;;;;11.98;100.00;97305.90;107644;1308;22258;-46
2023/10/25 06:48:56;;;;;;;5.20;4.20;;;;;;;11.90;100.00;97309.32;107650;1309;22458;-48
2023/10/25 06:51:21;;;;;;;9.00;4.30;;;;;;;11.89;100.00;97310.16;107657;1309;22591;-47
2023/10/25 06:53:47;;;;;;;7.50;4.90;;;;;;;11.89;100.00;97312.08;107663;1309;22272;-46
2023/10/25 06:56:13;;;;;;;5.30;4.80;;;;;;;11.87;100.00;97315.04;107641;1308;22268;-47
2023/10/25 06:58:40;;;;;;;6.50;5.00;;;;;;;11.79;100.00;97322.48;107660;1309;22235;-45
2023/10/25 07:01:06;;;;;;;5.20;4.40;;;;;;;11.75;100.00;97328.15;107341;1305;23086;-46
2023/10/25 07:03:35;;;;;;;4.90;4.30;;;;;;;11.66;100.00;97328.80;107652;1286;22503;-47
2023/10/25 07:06:03;;;;;;;7.70;5.60;;;;;;;11.61;100.00;97332.40;107649;1309;22611;-46
2023/10/25 07:08:29;;;;;;;5.90;4.20;;;;;;;11.59;100.00;97339.44;107675;1309;23215;-45
2023/10/25 07:10:55;;;;;;;8.60;5.20;;;;;;;11.56;100.00;97335.61;107654;1308;23296;-47
2023/10/25 07:13:20;;;;;;;5.00;4.10;;;;;;;11.57;100.00;97338.08;107667;1308;23488;-47
2023/10/25 07:15:47;;;;;;;4.90;4.30;;;;;;;11.56;100.00;97334.11;107656;1304;22952;-47
2023/10/25 07:18:12;;;;;;;7.50;5.00;;;;;;;11.53;100.00;97340.43;107689;1293;22239;-49
2023/10/25 07:20:37;;;;;;;8.10;4.60;;;;;;;11.52;100.00;97345.50;107645;1287;22250;-48
2023/10/25 07:23:04;;;;;;;12.50;7.70;;;;;;;11.49;100.00;97345.17;107645;1309;22230;-48
2023/10/25 07:25:30;;;;;;;9.30;5.70;;;;;;;11.44;100.00;97343.39;107638;1289;22309;-48
2023/10/25 07:27:55;;;;;;;8.00;5.80;;;;;;;11.42;100.00;97341.85;107631;1309;22224;-48
2023/10/25 07:30:20;;;;;;;3.80;2.70;;;;;;;11.42;100.00;97341.68;107661;1308;22248;-48
2023/10/25 07:32:46;;;;;;;4.50;2.90;;;;;;;11.36;100.00;97343.00;107639;1289;22510;-46
2023/10/25 07:35:11;;;;;;;2.90;2.60;;;;;;;11.38;100.00;97348.52;107665;1307;22245;-48
2023/10/25 07:37:36;;;;;;;3.20;2.60;;;;;;;11.31;100.00;97348.77;107669;1292;22570;-48
2023/10/25 07:40:05;;;;;;;4.70;2.70;;;;;;;11.26;100.00;97343.91;107752;1286;22241;-47
2023/10/25 07:42:31;;;;;;;3.60;2.90;;;;;;;11.27;100.00;97344.71;107851;1308;22238;-46
2023/10/25 07:44:57;;;;;;;5.70;3.00;;;;;;;11.30;100.00;97343.94;107836;1308;22256;-47
2023/10/25 07:47:22;;;;;;;3.30;2.90;;;;;;;11.32;100.00;97346.77;107849;1285;22260;-48
2023/10/25 07:49:47;;;;;;;5.70;3.40;;;;;;;11.29;100.00;97346.67;107855;1286;22412;-46
2023/10/25 07:52:16;;;;;;;6.10;3.70;;;;;;;11.28;100.00;97350.48;107639;1309;22987;-48
2023/10/25 07:54:41;;;;;;;6.10;3.10;;;;;;;11.30;100.00;97354.83;107652;1308;23185;-50
2023/10/25 07:57:06;;;;;;;4.90;3.40;;;;;;;11.31;100.00;97362.45;107678;1286;22239;-47
2023/10/25 07:59:32;;;;;;;3.60;3.20;;;;;;;11.29;100.00;97362.59;107648;1302;22302;-49
2023/10/25 08:01:57;;;;;;;3.00;2.70;;;;;;;11.29;100.00;97362.23;107657;1290;22255;-49
2023/10/25 08:04:23;;;;;;;2.70;2.50;;;;;;;11.32;100.00;97360.63;107673;1287;22459;-52
2023/10/25 08:06:48;;;;;;;2.90;2.50;;;;;;;11.30;100.00;97364.11;107643;1309;22235;-49
2023/10/25 08:09:14;;;;;;;2.80;2.00;;;;;;;11.29;100.00;97372.11;107654;1309;22314;-51
2023/10/25 08:11:39;;;;;;;3.00;2.10;;;;;;;11.32;100.00;97379.02;107634;1291;22447;-47
2023/10/25 08:14:05;;;;;;;2.50;2.00;;;;;;;11.31;100.00;97380.31;107652;1309;22240;-46
2023/10/25 08:16:30;;;;;;;2.20;2.00;;;;;;;11.30;100.00;97386.06;107654;1302;22999;-48
2023/10/25 08:18:56;;;;;;;2.40;2.20;;;;;;;11.27;100.00;97390.00;107634;1309;22134;-51
2023/10/25 08:21:21;;;;;;;2.30;2.10;;;;;;;11.24;100.00;97391.31;107626;1308;22443;-49
2023/10/25 08:23:51;;;;;;;2.70;1.90;;;;;;;11.20;100.00;97394.98;107638;1309;22271;-45
2023/10/25 08:26:17;;;;;;;2.50;2.30;;;;;;;11.16;100.00;97397.59;107658;1285;22263;-47
2023/10/25 08:28:42;;;;;;;3.40;1.90;;;;;;;11.14;100.00;97398.27;107668;1309;22268;-47
2023/10/25 08:31:14;;;;;;;3.90;2.10;;;;;;;11.15;100.00;97400.83;107651;1288;22421;-48
2023/10/25 08:33:40;;;;;;;2.50;2.30;;;;;;;11.09;100.00;97403.11;107663;1291;23180;-48
2023/10/25 08:36:06;;;;;;;3.50;2.30;;;;;;;11.07;100.00;97408.73;107664;1309;22972;-47
2023/10/25 08:38:31;;;;;;;5.10;2.30;;;;;;;11.06;100.00;97413.38;107669;1309;22364;-46
2023/10/25 08:41:04;;;;;;;2.80;2.60;;;;;;;11.07;100.00;97420.46;107650;1287;22886;-47
2023/10/25 08:43:33;;;;;;;13.00;6.40;;;;;;;11.06;100.00;97428.24;107637;1309;22262;-51
2023/10/25 08:46:03;;;;;;;13.90;6.20;;;;;;;11.09;100.00;97432.40;107416;1292;22264;-48
2023/10/25 08:48:29;;;;;;;11.20;6.70;;;;;;;11.09;100.00;97433.63;107659;1303;22298;-48
2023/10/25 08:50:55;;;;;;;10.80;7.30;;;;;;;11.11;100.00;97434.16;107654;1308;22420;-47
2023/10/25 08:53:25;;;;;;;6.10;3.30;;;;;;;11.10;100.00;97435.48;107654;1291;22246;-48
2023/10/25 08:55:52;;;;;;;2.90;2.60;;;;;;;11.10;100.00;97436.17;107680;1308;22235;-50
2023/10/25 08:58:19;;;;;;;3.20;2.90;;;;;;;11.09;100.00;97438.52;107649;1297;22025;-50
2023/10/25 09:00:44;;;;;;;5.20;3.50;;;;;;;11.06;100.00;97441.06;107674;1301;22330;-47
2023/10/25 09:03:32;;;;;;;3.50;3.20;;;;;;;11.04;100.00;97440.91;107556;1290;22498;-46
2023/10/25 09:06:03;;;;;;;6.30;3.60;;;;;;;11.05;100.00;97441.84;107652;1288;22219;-49
2023/10/25 09:08:29;;;;;;;3.90;3.40;;;;;;;11.02;100.00;97449.85;107607;1307;22431;-46
2023/10/25 09:11:01;;;;;;;4.70;3.30;;;;;;;11.02;100.00;97450.23;107676;1302;22429;-47
2023/10/25 09:13:26;;;;;;;4.30;3.20;;;;;;;10.99;100.00;97454.02;107665;1309;22278;-49
2023/10/25 09:15:52;;;;;;;3.00;2.70;;;;;;;10.97;100.00;97453.10;107669;1308;23120;-46
2023/10/25 09:18:17;;;;;;;4.70;3.40;;;;;;;10.93;100.00;97455.38;107633;1292;23183;-49
2023/10/25 09:20:49;;;;;;;7.20;3.50;;;;;;;10.89;100.00;97451.52;107672;1307;23451;-49
2023/10/25 09:23:15;;;;;;;3.80;3.40;;;;;;;10.89;100.00;97450.77;107744;1308;22280;-50
2023/10/25 09:25:40;;;;;;;4.30;3.50;;;;;;;10.91;100.00;97453.24;107756;1291;22384;-50
2023/10/25 09:28:16;;;;;;;3.80;2.90;;;;;;;10.89;100.00;97455.87;107688;1295;23190;-49
2023/10/25 09:30:42;;;;;;;3.50;3.20;;;;;;;10.90;100.00;97458.08;107611;1290;22419;-50
2023/10/25 09:33:07;;;;;;;4.00;3.60;;;;;;;10.94;100.00;97461.97;107720;1302;22288;-47
2023/10/25 09:35:33;;;;;;;4.80;4.30;;;;;;;10.94;100.00;97464.05;107716;1307;22455;-47
2023/10/25 09:37:59;;;;;;;5.40;4.10;;;;;;;10.92;100.00;97462.44;107804;1307;22258;-47
2023/10/25 09:40:25;;;;;;;5.40;4.60;;;;;;;10.96;100.00;97463.17;107700;1288;23238;-48
2023/10/25 09:42:54;;;;;;;9.20;6.50;;;;;;;10.99;100.00;97463.66;107802;1305;22881;-47
2023/10/25 09:45:26;;;;;;;5.60;5.00;;;;;;;10.94;100.00;97464.58;107760;1287;22383;-47
2023/10/25 09:47:55;;;;;;;7.20;5.80;;;;;;;10.90;100.00;97467.70;107727;1292;23011;-50
2023/10/25 09:50:31;;;;;;;6.00;5.40;;;;;;;10.87;100.00;97465.88;107822;1308;22278;-47
2023/10/25 09:53:20;;;;;;;8.40;7.30;;;;;;;10.86;100.00;97461.25;107723;1308;22444;-47
2023/10/25 09:55:54;;;;;;;7.70;6.70;;;;;;;10.85;100.00;97462.93;107736;1301;23025;-47
2023/10/25 09:58:22;;;;;;;7.90;6.00;;;;;;;10.86;100.00;97462.80;107828;1305;22947;-47
2023/10/25 10:00:48;;;;;;;8.60;7.30;;;;;;;10.87;100.00;97463.80;107698;1302;22328;-48
2023/10/25 10:03:48;;;;;;;7.50;6.10;;;;;;;10.84;100.00;97461.39;107779;1304;22248;-45
2023/10/25 10:06:38;;;;;;;8.00;7.20;;;;;;;10.78;100.00;97460.13;107841;1308;22230;-47
2023/10/25 10:09:14;;;;;;;9.60;7.80;;;;;;;10.84;100.00;97457.77;107668;1290;23096;-47
2023/10/25 10:11:45;;;;;;;9.30;7.40;;;;;;;10.86;100.00;97454.06;107748;1301;22437;-47
2023/10/25 10:14:35;;;;;;;11.10;7.90;;;;;;;10.82;100.00;97452.98;107818;1291;22259;-46
2023/10/25 10:17:07;;;;;;;10.70;8.70;;;;;;;10.84;100.00;97454.77;107696;1292;22385;-47
2023/10/25 10:19:43;;;;;;;12.50;8.90;;;;;;;10.80;100.00;97452.66;107762;1288;22476;-48
2023/10/25 10:22:19;;;;;;;10.50;9.20;;;;;;;10.80;100.00;97456.29;107837;1308;22263;-49
2023/10/25 10:24:47;;;;;;;10.40;8.70;;;;;;;10.82;100.00;97459.13;107698;1290;22232;-46
2023/10/25 10:27:17;;;;;;;12.20;9.10;;;;;;;10.83;100.00;97458.14;107770;1308;23126;-47
2023/10/25 10:29:45;;;;;;;12.20;9.40;;;;;;;10.83;100.00;97458.36;107771;1301;22383;-48
2023/10/25 10:32:11;;;;;;;14.60;8.90;;;;;;;10.86;100.00;97460.34;107678;1299;23268;-46
2023/10/25 10:34:42;;;;;;;16.70;11.30;;;;;;;10.84;100.00;97463.30;107816;1290;23102;-47
2023/10/25 10:37:10;;;;;;;14.40;11.20;;;;;;;10.81;100.00;97464.98;107719;1297;22320;-47
2023/10/25 10:39:38;;;;;;;16.10;11.60;;;;;;;10.77;100.00;97466.18;107749;1306;22690;-46
2023/10/25 10:42:03;;;;;;;;;;;;;;;10.76;100.00;97466.96;107821;1287;22457;-47
2023/10/25 10:44:28;;;;;;;15.90;11.80;;;;;;;10.72;100.00;97469.20;107690;1302;23223;-46
2023/10/25 10:47:00;;;;;;;19.40;15.00;;;;;;;10.70;100.00;97469.25;107718;1304;22359;-47
2023/10/25 10:49:29;;;;;;;18.00;13.80;;;;;;;10.72;100.00;97468.91;107439;1304;22341;-49
2023/10/25 10:51:55;;;;;;;17.00;12.20;;;;;;;10.75;100.00;97475.64;107381;1293;23193;-49
2023/10/25 10:54:20;;;;;;;20.80;15.90;;;;;;;10.70;100.00;97477.09;107657;1304;22273;-45
2023/10/25 10:56:46;;;;;;;25.20;15.50;;;;;;;10.69;100.00;97477.58;107692;1288;22501;-49
2023/10/25 10:59:11;;;;;;;37.70;26.10;;;;;;;10.70;100.00;97479.28;107751;1285;23237;-47
2023/10/25 11:01:37;;;;;;;29.00;19.60;;;;;;;10.71;100.00;97479.50;107616;1289;23157;-50
2023/10/25 11:04:02;;;;;;;20.70;14.30;;;;;;;10.74;100.00;97484.00;107789;1294;23210;-46
2023/10/25 11:06:27;;;;;;;29.70;16.80;;;;;;;10.73;100.00;97482.45;107642;1285;22322;-45
2023/10/25 11:08:53;;;;;;;25.60;16.10;;;;;;;10.74;100.00;97489.56;107718;1304;22271;-46
2023/10/25 11:11:20;;;;;;;21.30;16.30;;;;;;;10.73;100.00;97491.35;107766;1286;22351;-46
2023/10/25 11:13:46;;;;;;;23.40;16.10;;;;;;;10.74;100.00;97493.58;107607;1288;23037;-49
2023/10/25 11:16:12;;;;;;;32.00;19.00;;;;;;;10.76;100.00;97493.44;107692;1294;23574;-51
2023/10/25 11:18:37;;;;;;;24.00;19.10;;;;;;;10.78;100.00;97496.24;107724;1308;22494;-47
2023/10/25 11:21:03;;;;;;;34.80;23.90;;;;;;;10.81;100.00;97496.70;107771;1301;22510;-48
2023/10/25 11:23:28;;;;;;;28.60;19.60;;;;;;;10.80;100.00;97494.16;107779;1302;22410;-45
2023/10/25 11:25:54;;;;;;;31.50;22.90;;;;;;;10.82;100.00;97490.99;107673;1285;22248;-46
2023/10/25 11:28:20;;;;;;;28.70;20.80;;;;;;;10.85;100.00;97490.98;107825;1287;22318;-46
2023/10/25 11:30:48;;;;;;;28.20;20.00;;;;;;;10.87;100.00;97493.94;107788;1289;22279;-47
2023/10/25 11:33:15;;;;;;;29.60;20.10;;;;;;;10.88;100.00;97498.41;107761;1291;22244;-50
2023/10/25 11:35:42;;;;;;;27.60;19.20;;;;;;;10.86;100.00;97498.02;107743;1288;22137;-46
2023/10/25 11:38:09;;;;;;;31.90;21.40;;;;;;;10.87;100.00;97497.60;107708;1302;22564;-46
2023/10/25 11:40:45;;;;;;;30.90;19.70;;;;;;;10.86;100.00;97498.70;107844;1308;22362;-46
2023/10/25 11:43:11;;;;;;;35.10;21.50;;;;;;;10.88;100.00;97500.15;107741;1287;22985;-46
2023/10/25 11:45:37;;;;;;;35.20;22.00;;;;;;;10.87;100.00;97502.02;107759;1308;22437;-49
2023/10/25 11:48:04;;;;;;;31.10;19.30;;;;;;;10.89;100.00;97505.89;107611;1290;22228;-49
2023/10/25 11:50:29;;;;;;;30.80;20.30;;;;;;;10.89;100.00;97506.02;107661;1300;22370;-46
2023/10/25 11:52:55;;;;;;;33.40;21.70;;;;;;;10.89;100.00;97509.02;107779;1300;22477;-45
2023/10/25 11:55:21;;;;;;;29.40;19.90;;;;;;;10.94;100.00;97512.61;107648;1309;23106;-47
2023/10/25 11:57:47;;;;;;;30.50;21.20;;;;;;;10.97;100.00;97505.37;107765;1286;22269;-47
2023/10/25 12:00:13;;;;;;;29.50;20.50;;;;;;;10.99;100.00;97504.65;107772;1308;22457;-47
2023/10/25 12:02:38;;;;;;;32.90;21.30;;;;;;;10.94;100.00;97503.80;107679;1291;22262;-46
2023/10/25 12:05:04;;;;;;;34.40;24.20;;;;;;;10.98;100.00;97509.30;107779;1289;23111;-46
2023/10/25 12:07:33;;;;;;;34.20;22.30;;;;;;;10.96;100.00;97516.67;107764;1302;22215;-46
2023/10/25 12:09:58;;;;;;;29.80;21.40;;;;;;;10.95;100.00;97513.41;107711;1308;22972;-46
2023/10/25 12:12:24;;;;;;;28.10;18.60;;;;;;;10.92;100.00;97515.20;107808;1287;22512;-49
2023/10/25 12:14:50;;;;;;;29.30;21.60;;;;;;;10.91;100.00;97511.27;107647;1308;22296;-48
2023/10/25 12:17:16;;;;;;;33.90;24.20;;;;;;;10.91;100.00;97512.50;107775;1308;22412;-47
2023/10/25 12:19:41;;;;;;;35.10;23.20;;;;;;;10.95;100.00;97512.53;107753;1295;22489;-47
2023/10/25 12:22:09;;;;;;;23.40;18.20;;;;;;;10.95;100.00;97517.98;107719;1285;23000;-47
2023/10/25 12:24:36;;;;;;;27.80;19.20;;;;;;;10.98;100.00;97517.91;107853;1294;23353;-46
2023/10/25 12:27:02;;;;;;;24.10;17.20;;;;;;;10.95;100.00;97518.52;107681;1308;22956;-46
2023/10/25 12:29:27;;;;;;;29.50;19.30;;;;;;;10.94;100.00;97512.55;107797;1288;22296;-47
2023/10/25 12:31:53;;;;;;;24.20;17.10;;;;;;;10.97;100.00;97516.05;107761;1308;22252;-44
2023/10/25 12:34:18;;;;;;;24.80;16.00;;;;;;;11.00;100.00;97517.18;107699;1285;22230;-49
2023/10/25 12:36:44;;;;;;;26.40;18.10;;;;;;;11.00;100.00;97518.04;107810;1291;22894;-46
2023/10/25 12:39:09;;;;;;;23.20;16.70;;;;;;;11.00;100.00;97521.91;107726;1293;22241;-47
2023/10/25 12:41:34;;;;;;;26.80;17.30;;;;;;;11.01;100.00;97519.60;107772;1288;22982;-46
2023/10/25 12:44:04;;;;;;;22.80;14.90;;;;;;;11.02;100.00;97519.63;107674;1301;22260;-46
2023/10/25 12:46:30;;;;;;;28.50;18.20;;;;;;;10.99;100.00;97521.81;107844;1290;23024;-48
2023/10/25 12:48:55;;;;;;;23.90;17.10;;;;;;;10.99;100.00;97519.89;107698;1293;22450;-47
2023/10/25 12:51:21;;;;;;;25.20;16.90;;;;;;;10.99;100.00;97522.56;107754;1303;22258;-46
2023/10/25 12:53:46;;;;;;;26.00;15.90;;;;;;;10.96;100.00;97525.61;107764;1289;22479;-46
2023/10/25 12:56:11;;;;;;;30.60;19.40;;;;;;;10.92;100.00;97526.08;107796;1285;22366;-47
2023/10/25 12:58:37;;;;;;;33.20;23.40;;;;;;;10.83;100.00;97520.36;107816;1301;22259;-46
2023/10/25 13:01:02;;;;;;;25.10;17.20;;;;;;;10.86;100.00;97520.09;107752;1308;22270;-45
2023/10/25 13:03:27;;;;;;;25.60;18.20;;;;;;;10.89;100.00;97522.55;107766;1308;23333;-46
2023/10/25 13:05:53;;;;;;;24.00;16.80;;;;;;;10.85;100.00;97527.61;107817;1289;22463;-46
2023/10/25 13:08:18;;;;;;;23.00;16.70;;;;;;;10.87;100.00;97526.89;107696;1288;22369;-44
2023/10/25 13:10:43;;;;;;;24.00;15.60;;;;;;;10.88;100.00;97528.90;107824;1304;22279;-45
2023/10/25 13:13:08;;;;;;;22.70;16.00;;;;;;;10.85;100.00;97519.85;107697;1288;22856;-44
2023/10/25 13:15:34;;;;;;;25.00;16.20;;;;;;;10.84;100.00;97522.41;107806;1294;22236;-43
2023/10/25 13:17:59;;;;;;;25.30;17.00;;;;;;;10.84;100.00;97522.78;107743;1302;22338;-45
2023/10/25 13:20:24;;;;;;;25.10;17.50;;;;;;;10.87;100.00;97523.39;107846;1294;22458;-45
2023/10/25 13:22:50;;;;;;;23.40;15.70;;;;;;;10.89;100.00;97523.21;107744;1302;22477;-50
2023/10/25 13:25:15;;;;;;;24.30;16.30;;;;;;;10.89;100.00;97523.52;107826;1286;23077;-49
2023/10/25 13:27:41;;;;;;;27.80;16.20;;;;;;;10.92;100.00;97520.19;107746;1304;22413;-54
2023/10/25 13:30:07;;;;;;;28.10;19.10;;;;;;;10.93;100.00;97521.60;107814;1308;22267;-50
2023/10/25 13:32:32;;;;;;;26.00;16.90;;;;;;;10.98;100.00;97521.59;107712;1298;22445;-52
2023/10/25 13:34:58;;;;;;;25.00;16.50;;;;;;;10.98;100.00;97524.89;107801;1286;22434;-52
2023/10/25 13:37:24;;;;;;;26.00;17.20;;;;;;;11.00;100.00;97533.37;107756;1288;22314;-53
2023/10/25 13:39:50;;;;;;;26.00;18.20;;;;;;;11.01;100.00;97532.20;107808;1308;22274;-52
2023/10/25 13:42:16;;;;;;;21.50;14.80;;;;;;;11.04;100.00;97531.27;107726;1302;22299;-49
2023/10/25 13:44:41;;;;;;;24.40;15.60;;;;;;;11.02;100.00;97534.69;107711;1294;22246;-48
2023/10/25 13:47:06;;;;;;;22.80;16.20;;;;;;;10.98;100.00;97537.33;107792;1301;22947;-51
2023/10/25 13:49:32;;;;;;;23.20;16.70;;;;;;;10.97;100.00;97538.80;107763;1287;22257;-51
2023/10/25 13:51:57;;;;;;;24.20;16.50;;;;;;;10.97;100.00;97538.31;107617;1307;22265;-56
2023/10/25 13:54:22;;;;;;;27.60;16.50;;;;;;;10.99;100.00;97541.53;107654;1302;22448;-46
2023/10/25 13:56:48;;;;;;;24.80;16.50;;;;;;;10.94;100.00;97538.38;107808;1288;22270;-54
2023/10/25 13:59:13;;;;;;;24.00;17.20;;;;;;;10.98;100.00;97540.69;107752;1304;23106;-52
2023/10/25 14:01:42;;;;;;;23.70;15.60;;;;;;;10.96;100.00;97542.77;107771;1288;22438;-48
2023/10/25 14:04:09;;;;;;;21.60;15.30;;;;;;;10.93;100.00;97544.61;107833;1308;22251;-49
2023/10/25 14:06:36;;;;;;;21.20;14.70;;;;;;;10.94;100.00;97542.75;107719;1285;22343;-46
2023/10/25 14:09:02;;;;;;;19.60;14.30;;;;;;;10.96;100.00;97537.34;107817;1308;22265;-55